Time;durP1;ratioP1;P1;durP2;ratioP2;P2;SDS_P1;SDS_P2;PMS_P1;PMS_P2;Temp;Humidity;BMP_temperature;BMP_pressure;BME280_temperature;BME280_humidity;BME280_pressure;Samples;Min_cycle;Max_cycle;Signal;HPM_P1;HPM_P2
2021/09/26 00:01:13;;;;;;;28.40;22.10;;;17.20;99.90;;;;;;5015549;28;25138;-60
2021/09/26 00:03:39;;;;;;;32.20;22.33;;;17.20;99.90;;;;;;5015096;28;25048;-61
2021/09/26 00:06:04;;;;;;;29.52;22.05;;;17.20;99.90;;;;;;5008789;28;25115;-59
2021/09/26 00:08:30;;;;;;;31.35;22.52;;;17.20;99.90;;;;;;5006736;28;25080;-59
2021/09/26 00:10:55;;;;;;;29.83;22.38;;;17.20;99.90;;;;;;5005715;28;25113;-61
2021/09/26 00:13:21;;;;;;;30.85;22.67;;;17.10;99.90;;;;;;5011652;28;25185;-60
2021/09/26 00:15:47;;;;;;;29.40;22.38;;;17.10;99.90;;;;;;5007388;28;25096;-60
2021/09/26 00:18:13;;;;;;;30.77;23.25;;;17.00;99.90;;;;;;5012230;28;25076;-61
2021/09/26 00:20:38;;;;;;;27.35;21.13;;;16.90;99.90;;;;;;5016596;28;25076;-59
2021/09/26 00:23:04;;;;;;;29.70;22.13;;;17.00;99.90;;;;;;4992110;28;25110;-61
2021/09/26 00:25:29;;;;;;;32.22;24.10;;;17.00;99.90;;;;;;5022786;28;25059;-60
2021/09/26 00:27:55;;;;;;;30.90;23.23;;;16.90;99.90;;;;;;5015283;28;25144;-60
2021/09/26 00:30:21;;;;;;;32.20;21.85;;;16.90;99.90;;;;;;5006567;28;25148;-60
2021/09/26 00:32:46;;;;;;;34.80;24.23;;;16.80;99.90;;;;;;5015642;28;25130;-60
2021/09/26 00:35:13;;;;;;;32.13;24.42;;;16.70;99.90;;;;;;5007102;28;25139;-61
2021/09/26 00:37:39;;;;;;;33.05;23.00;;;16.70;99.90;;;;;;5020439;28;25116;-60
2021/09/26 00:40:06;;;;;;;27.92;22.50;;;16.80;99.90;;;;;;5001782;28;25051;-60
2021/09/26 00:42:32;;;;;;;29.15;22.85;;;16.80;99.90;;;;;;5020338;28;25057;-59
2021/09/26 00:44:58;;;;;;;29.33;23.95;;;16.70;99.90;;;;;;5014219;28;25068;-60
2021/09/26 00:47:27;;;;;;;33.17;23.65;;;16.70;99.90;;;;;;5013112;28;25156;-61
2021/09/26 00:49:53;;;;;;;28.77;21.25;;;16.70;99.90;;;;;;5011282;28;25058;-60
2021/09/26 00:52:20;;;;;;;25.23;20.85;;;16.70;99.90;;;;;;5015383;28;25068;-59
2021/09/26 00:54:46;;;;;;;30.95;22.67;;;16.70;99.90;;;;;;5009983;28;25064;-62
2021/09/26 00:57:12;;;;;;;32.50;23.15;;;16.70;99.90;;;;;;5005830;28;25062;-61
2021/09/26 00:59:37;;;;;;;32.83;24.30;;;16.60;99.90;;;;;;4999701;28;25116;-60
2021/09/26 01:02:03;;;;;;;32.47;23.95;;;16.50;99.90;;;;;;5006951;28;25057;-59
2021/09/26 01:04:30;;;;;;;36.10;23.75;;;16.50;99.90;;;;;;5006911;28;25147;-64
2021/09/26 01:07:19;;;;;;;33.92;24.48;;;16.50;99.90;;;;;;4991173;28;25127;-61
2021/09/26 01:10:02;;;;;;;41.47;24.30;;;16.50;99.90;;;;;;5018116;28;25057;-60
2021/09/26 01:12:40;;;;;;;36.15;25.77;;;16.40;99.90;;;;;;5023466;28;25079;-60
2021/09/26 01:15:42;;;;;;;36.97;25.40;;;16.30;99.90;;;;;;5003961;28;25070;-60
2021/09/26 01:18:26;;;;;;;34.03;24.97;;;16.20;99.90;;;;;;5016115;28;25102;-60
2021/09/26 01:21:01;;;;;;;38.88;25.77;;;16.20;99.90;;;;;;4992433;28;25063;-60
2021/09/26 01:23:54;;;;;;;30.55;25.23;;;16.30;99.90;;;;;;5006612;28;25104;-59
2021/09/26 01:26:42;;;;;;;32.17;25.55;;;16.20;99.90;;;;;;5022640;28;25058;-61
2021/09/26 01:29:36;;;;;;;35.20;25.30;;;16.20;99.90;;;;;;5013319;28;25127;-62
2021/09/26 01:32:06;;;;;;;34.22;24.73;;;16.20;99.90;;;;;;5023335;28;25156;-60
2021/09/26 01:34:47;;;;;;;31.73;23.15;;;16.20;99.90;;;;;;5016669;28;25087;-60
2021/09/26 01:37:53;;;;;;;33.00;24.02;;;16.20;99.90;;;;;;5006812;28;24899;-59
2021/09/26 01:40:47;;;;;;;31.15;25.20;;;16.30;99.90;;;;;;5008613;28;25093;-61
2021/09/26 01:43:18;;;;;;;30.08;23.40;;;16.30;99.90;;;;;;5016157;28;25055;-59
2021/09/26 01:45:47;;;;;;;36.97;24.92;;;16.30;99.90;;;;;;5011820;28;25063;-60
2021/09/26 01:48:27;;;;;;;35.08;25.00;;;16.30;99.90;;;;;;5024520;28;25072;-60
2021/09/26 01:50:57;;;;;;;31.27;23.85;;;16.30;99.90;;;;;;5025289;28;25133;-59
2021/09/26 01:53:25;;;;;;;34.28;25.10;;;16.30;99.90;;;;;;5027741;28;25156;-59
2021/09/26 01:55:52;;;;;;;35.80;24.15;;;16.20;99.90;;;;;;5024480;28;25087;-60
2021/09/26 01:58:19;;;;;;;30.80;24.15;;;16.30;99.90;;;;;;5009281;28;25159;-60
2021/09/26 02:00:45;;;;;;;35.80;23.27;;;16.50;99.90;;;;;;5009159;28;25062;-60
2021/09/26 02:03:11;;;;;;;32.95;23.42;;;16.50;99.90;;;;;;5026883;28;25073;-63
2021/09/26 02:05:41;;;;;;;32.67;24.02;;;16.50;99.90;;;;;;5027198;28;25087;-60
2021/09/26 02:08:07;;;;;;;32.97;23.30;;;16.60;99.90;;;;;;4994241;28;25069;-60
2021/09/26 02:10:34;;;;;;;30.25;22.80;;;16.60;99.90;;;;;;5017050;28;25114;-61
2021/09/26 02:13:01;;;;;;;32.92;23.17;;;16.50;99.90;;;;;;5010701;28;25093;-59
2021/09/26 02:15:28;;;;;;;33.20;23.73;;;16.50;99.90;;;;;;5008344;28;25064;-60
2021/09/26 02:17:54;;;;;;;32.20;22.85;;;16.60;99.90;;;;;;5018273;28;25083;-59
2021/09/26 02:20:21;;;;;;;30.33;22.83;;;16.60;99.90;;;;;;5016499;28;25164;-59
2021/09/26 02:22:49;;;;;;;37.63;25.42;;;16.70;99.90;;;;;;5012706;28;25102;-60
2021/09/26 02:25:18;;;;;;;30.67;22.25;;;16.50;99.90;;;;;;5014098;28;25054;-61
2021/09/26 02:27:43;;;;;;;30.98;24.52;;;16.60;99.90;;;;;;5013739;28;25084;-60
2021/09/26 02:30:10;;;;;;;34.22;24.55;;;16.70;99.90;;;;;;5013949;28;25153;-59
2021/09/26 02:32:36;;;;;;;32.75;23.13;;;16.60;99.90;;;;;;4994025;28;25111;-59
2021/09/26 02:35:04;;;;;;;31.10;23.60;;;16.50;99.90;;;;;;5018163;28;25098;-59
2021/09/26 02:37:29;;;;;;;33.50;22.83;;;16.40;99.90;;;;;;5017203;28;25119;-61
2021/09/26 02:39:55;;;;;;;39.80;26.55;;;16.40;99.90;;;;;;5020243;28;25065;-60
2021/09/26 02:42:39;;;;;;;30.63;22.25;;;16.50;99.90;;;;;;4997554;28;25146;-61
2021/09/26 02:45:13;;;;;;;33.97;23.73;;;16.60;99.90;;;;;;5009121;28;25046;-58
2021/09/26 02:47:51;;;;;;;32.10;23.35;;;16.60;99.90;;;;;;5017014;28;25071;-61
2021/09/26 02:50:18;;;;;;;32.22;24.08;;;16.60;99.90;;;;;;5017236;28;25162;-60
2021/09/26 02:52:45;;;;;;;26.23;22.33;;;16.50;99.90;;;;;;4990771;28;25087;-60
2021/09/26 02:55:11;;;;;;;30.58;22.55;;;16.60;99.90;;;;;;5016549;28;25093;-61
2021/09/26 02:57:37;;;;;;;30.33;22.60;;;16.80;99.90;;;;;;5027354;28;25068;-60
2021/09/26 03:00:04;;;;;;;33.55;25.02;;;16.80;99.90;;;;;;5022784;28;25080;-60
2021/09/26 03:02:31;;;;;;;33.65;24.23;;;16.70;99.90;;;;;;5026249;28;25213;-59
2021/09/26 03:04:56;;;;;;;27.42;21.00;;;16.80;99.90;;;;;;5013170;28;25066;-60
2021/09/26 03:07:22;;;;;;;29.00;23.23;;;16.80;99.90;;;;;;5022209;28;25069;-59
2021/09/26 03:09:48;;;;;;;29.98;22.92;;;16.60;99.90;;;;;;5026397;28;25107;-61
2021/09/26 03:12:16;;;;;;;29.02;22.77;;;16.60;99.90;;;;;;5023881;28;25089;-61
2021/09/26 03:14:41;;;;;;;38.30;24.00;;;16.70;99.90;;;;;;5012952;28;25071;-61
2021/09/26 03:17:07;;;;;;;35.22;24.27;;;16.80;99.90;;;;;;5007060;28;25110;-63
2021/09/26 03:19:34;;;;;;;36.53;27.00;;;16.70;99.90;;;;;;5008415;28;25119;-60
2021/09/26 03:22:04;;;;;;;33.03;25.70;;;16.60;99.90;;;;;;5020464;28;25056;-60
2021/09/26 03:24:30;;;;;;;32.50;23.10;;;16.60;99.90;;;;;;5007658;28;25082;-60
2021/09/26 03:26:57;;;;;;;30.77;23.67;;;16.80;99.90;;;;;;5019222;28;25148;-60
2021/09/26 03:29:23;;;;;;;36.08;25.58;;;16.80;99.90;;;;;;5025416;28;25141;-61
2021/09/26 03:31:48;;;;;;;32.50;24.08;;;16.70;99.90;;;;;;5017039;28;25077;-60
2021/09/26 03:34:14;;;;;;;40.05;25.73;;;16.80;99.90;;;;;;5008575;28;25064;-60
2021/09/26 03:36:40;;;;;;;32.92;23.77;;;16.80;99.90;;;;;;5024121;28;25103;-60
2021/09/26 03:39:05;;;;;;;33.42;24.52;;;16.90;99.90;;;;;;5020544;28;25068;-61
2021/09/26 03:41:31;;;;;;;33.55;23.88;;;16.80;99.90;;;;;;5011607;28;25098;-60
2021/09/26 03:43:56;;;;;;;32.47;25.42;;;16.80;99.90;;;;;;5012627;28;25112;-61
2021/09/26 03:46:22;;;;;;;31.90;24.58;;;16.80;99.90;;;;;;5018082;28;25066;-61
2021/09/26 03:48:48;;;;;;;30.65;24.63;;;17.00;99.90;;;;;;5010879;28;25074;-62
2021/09/26 03:51:13;;;;;;;37.72;26.38;;;16.90;99.90;;;;;;5021389;28;25064;-60
2021/09/26 03:53:39;;;;;;;36.45;25.58;;;16.80;99.90;;;;;;5018763;28;25059;-60
2021/09/26 03:56:05;;;;;;;34.97;25.42;;;16.90;99.90;;;;;;5011229;28;25070;-60
2021/09/26 03:58:32;;;;;;;35.70;25.63;;;16.80;99.90;;;;;;5012253;28;25105;-59
2021/09/26 04:00:57;;;;;;;33.30;25.92;;;16.80;99.90;;;;;;5025277;28;25071;-60
2021/09/26 04:03:23;;;;;;;40.08;27.15;;;16.70;99.90;;;;;;5014542;28;25062;-61
2021/09/26 04:05:49;;;;;;;37.97;24.63;;;16.60;99.90;;;;;;5018158;28;25127;-61
2021/09/26 04:08:15;;;;;;;37.15;25.08;;;16.70;99.90;;;;;;5020501;28;25101;-59
2021/09/26 04:10:41;;;;;;;35.58;25.48;;;16.70;99.90;;;;;;5006897;28;25063;-61
2021/09/26 04:13:06;;;;;;;34.47;26.15;;;16.70;99.90;;;;;;5011953;28;25079;-61
2021/09/26 04:15:32;;;;;;;48.05;26.42;;;16.70;99.90;;;;;;5014412;28;25079;-61
2021/09/26 04:17:58;;;;;;;34.88;26.70;;;16.80;99.90;;;;;;5017035;28;25049;-60
2021/09/26 04:20:23;;;;;;;35.65;28.90;;;16.80;99.90;;;;;;5017116;28;25126;-60
2021/09/26 04:22:49;;;;;;;34.97;26.13;;;16.70;99.90;;;;;;5018776;28;25083;-62
2021/09/26 04:25:15;;;;;;;38.40;28.35;;;16.80;99.90;;;;;;5009889;28;25092;-60
2021/09/26 04:27:40;;;;;;;34.55;27.30;;;16.70;99.90;;;;;;5028480;28;25126;-60
2021/09/26 04:30:07;;;;;;;34.60;27.23;;;16.70;99.90;;;;;;5016357;28;25065;-61
2021/09/26 04:32:33;;;;;;;31.23;25.42;;;16.70;99.90;;;;;;5010241;28;25062;-60
2021/09/26 04:34:58;;;;;;;37.60;27.88;;;16.70;99.90;;;;;;5009499;28;25059;-59
2021/09/26 04:37:24;;;;;;;37.20;27.77;;;16.80;99.90;;;;;;5007454;28;25073;-60
2021/09/26 04:39:50;;;;;;;34.45;26.55;;;16.80;99.90;;;;;;5025918;28;25129;-60
2021/09/26 04:42:15;;;;;;;34.55;27.00;;;16.80;99.90;;;;;;5010128;28;25064;-60
2021/09/26 04:44:41;;;;;;;31.58;23.35;;;16.80;99.90;;;;;;5006774;28;25060;-59
2021/09/26 04:47:07;;;;;;;34.30;26.30;;;16.90;99.90;;;;;;5006578;28;25059;-59
2021/09/26 04:49:32;;;;;;;34.35;28.00;;;17.00;99.90;;;;;;5007605;28;25113;-61
2021/09/26 04:52:00;;;;;;;38.63;30.08;;;17.00;99.90;;;;;;5008257;28;25097;-60
2021/09/26 04:54:25;;;;;;;38.25;28.42;;;16.90;99.90;;;;;;5024737;28;25060;-60
2021/09/26 04:56:52;;;;;;;40.97;29.40;;;16.90;99.90;;;;;;5026577;28;25137;-60
2021/09/26 04:59:19;;;;;;;40.90;30.48;;;16.80;99.90;;;;;;5026092;28;25139;-59
2021/09/26 05:01:44;;;;;;;45.25;32.90;;;17.00;99.90;;;;;;5006153;28;25051;-61
2021/09/26 05:04:10;;;;;;;38.95;29.45;;;16.90;99.90;;;;;;5008723;28;25110;-60
2021/09/26 05:06:36;;;;;;;37.80;30.80;;;16.80;99.90;;;;;;5006778;28;25120;-61
2021/09/26 05:09:02;;;;;;;46.25;32.22;;;16.80;99.90;;;;;;5014344;28;25072;-61
2021/09/26 05:11:28;;;;;;;35.53;26.50;;;16.90;99.90;;;;;;5008977;28;25067;-59
2021/09/26 05:13:54;;;;;;;40.28;30.02;;;17.10;99.90;;;;;;5010897;28;25133;-60
2021/09/26 05:16:19;;;;;;;41.67;31.52;;;17.10;99.90;;;;;;5019875;28;25137;-60
2021/09/26 05:18:45;;;;;;;40.05;29.45;;;17.00;99.90;;;;;;5024626;28;25068;-60
2021/09/26 05:21:10;;;;;;;38.00;29.88;;;17.10;99.90;;;;;;5024769;28;25069;-60
2021/09/26 05:23:36;;;;;;;38.97;28.15;;;17.10;99.90;;;;;;5024728;28;25081;-60
2021/09/26 05:26:03;;;;;;;38.75;29.35;;;17.10;99.90;;;;;;5011878;28;25058;-60
2021/09/26 05:28:28;;;;;;;43.47;32.53;;;17.00;99.90;;;;;;5015968;28;25148;-60
2021/09/26 05:30:54;;;;;;;45.63;30.88;;;17.10;99.90;;;;;;5019759;28;25070;-60
2021/09/26 05:33:19;;;;;;;40.03;30.73;;;17.10;99.90;;;;;;5017290;28;25067;-60
2021/09/26 05:35:45;;;;;;;35.58;28.55;;;17.10;99.90;;;;;;5016798;28;25058;-59
2021/09/26 05:38:11;;;;;;;36.47;28.67;;;17.20;99.90;;;;;;5018397;28;25172;-60
2021/09/26 05:40:36;;;;;;;42.10;30.27;;;17.20;99.90;;;;;;5015747;28;25190;-60
2021/09/26 05:43:02;;;;;;;41.63;28.20;;;17.10;99.90;;;;;;5015339;28;25132;-59
2021/09/26 05:45:28;;;;;;;36.15;29.92;;;17.20;99.90;;;;;;5008797;28;25114;-60
2021/09/26 05:47:53;;;;;;;38.47;29.73;;;17.20;99.90;;;;;;5009168;28;25155;-61
2021/09/26 05:50:19;;;;;;;41.53;32.22;;;17.30;99.90;;;;;;5017557;28;25076;-59
2021/09/26 05:52:44;;;;;;;37.50;29.13;;;17.20;99.90;;;;;;5031062;28;25073;-60
2021/09/26 05:55:10;;;;;;;42.40;31.65;;;17.20;99.90;;;;;;5028604;28;25071;-60
2021/09/26 05:57:36;;;;;;;39.13;30.55;;;17.10;99.90;;;;;;5006854;28;25061;-60
2021/09/26 06:00:04;;;;;;;38.63;29.77;;;17.20;99.90;;;;;;5012610;28;25077;-61
2021/09/26 06:02:30;;;;;;;39.67;32.47;;;17.20;99.90;;;;;;5008791;28;25067;-60
2021/09/26 06:04:55;;;;;;;40.47;32.88;;;17.30;99.90;;;;;;5010333;28;25080;-60
2021/09/26 06:07:21;;;;;;;38.80;30.33;;;17.20;99.90;;;;;;4995578;28;25063;-60
2021/09/26 06:09:47;;;;;;;39.03;30.60;;;17.40;99.90;;;;;;5010394;28;25098;-60
2021/09/26 06:12:13;;;;;;;37.38;30.88;;;17.30;99.90;;;;;;5019467;28;25090;-60
2021/09/26 06:14:41;;;;;;;41.88;31.98;;;17.40;99.90;;;;;;5016917;28;25064;-60
2021/09/26 06:17:06;;;;;;;39.72;31.75;;;17.30;99.90;;;;;;5010878;28;25100;-60
2021/09/26 06:19:32;;;;;;;36.10;30.15;;;17.20;99.90;;;;;;5016116;28;25109;-61
2021/09/26 06:21:58;;;;;;;38.00;30.48;;;17.30;99.90;;;;;;5022363;28;25101;-60
2021/09/26 06:24:23;;;;;;;36.60;29.33;;;17.30;99.90;;;;;;5021448;28;25067;-60
2021/09/26 06:26:49;;;;;;;42.20;32.08;;;17.30;99.90;;;;;;5009592;28;25164;-60
2021/09/26 06:29:14;;;;;;;36.70;29.95;;;17.30;99.90;;;;;;5011117;28;25070;-60
2021/09/26 06:31:40;;;;;;;31.23;25.50;;;17.30;99.90;;;;;;5008031;28;25065;-61
2021/09/26 06:34:06;;;;;;;36.72;27.08;;;17.30;99.90;;;;;;5005370;28;25076;-59
2021/09/26 06:36:32;;;;;;;33.38;27.00;;;17.40;99.90;;;;;;5025081;28;25132;-60
2021/09/26 06:38:58;;;;;;;35.45;28.33;;;17.30;99.90;;;;;;5016847;28;25080;-61
2021/09/26 06:41:23;;;;;;;36.00;28.10;;;17.30;99.90;;;;;;5009180;28;25055;-60
2021/09/26 06:43:50;;;;;;;36.15;29.23;;;17.40;99.90;;;;;;5007210;28;25086;-61
2021/09/26 06:46:16;;;;;;;35.80;26.92;;;17.50;99.90;;;;;;5013324;28;25062;-60
2021/09/26 06:48:44;;;;;;;36.63;28.80;;;17.50;99.90;;;;;;5012456;28;25089;-60
2021/09/26 06:51:10;;;;;;;33.20;27.42;;;17.50;99.90;;;;;;5023657;28;25136;-59
2021/09/26 06:53:36;;;;;;;33.58;26.17;;;17.60;99.90;;;;;;5007778;28;25072;-60
2021/09/26 06:56:02;;;;;;;38.83;29.00;;;17.70;99.90;;;;;;5018683;28;25085;-59
2021/09/26 06:58:27;;;;;;;35.20;27.70;;;17.70;99.90;;;;;;5011191;28;25075;-62
2021/09/26 07:00:53;;;;;;;34.35;27.35;;;17.50;99.90;;;;;;5019067;28;25065;-61
2021/09/26 07:03:18;;;;;;;34.13;26.95;;;17.50;99.90;;;;;;5021798;28;25111;-61
2021/09/26 07:05:44;;;;;;;36.00;27.40;;;17.60;99.90;;;;;;5013841;28;25069;-60
2021/09/26 07:08:10;;;;;;;35.03;27.73;;;17.60;99.90;;;;;;5016700;28;25065;-60
2021/09/26 07:10:35;;;;;;;34.42;26.77;;;17.50;99.90;;;;;;5026173;28;25065;-60
2021/09/26 07:13:01;;;;;;;33.08;26.88;;;17.60;99.90;;;;;;5012472;28;25075;-61
2021/09/26 07:15:26;;;;;;;41.53;28.98;;;17.70;99.90;;;;;;5010375;28;25122;-61
2021/09/26 07:17:56;;;;;;;32.92;27.25;;;17.70;99.90;;;;;;5026873;28;25140;-59
2021/09/26 07:20:22;;;;;;;31.67;27.55;;;17.60;99.90;;;;;;5016352;28;25158;-60
2021/09/26 07:22:48;;;;;;;32.58;26.75;;;17.70;99.90;;;;;;5012502;28;25055;-59
2021/09/26 07:25:14;;;;;;;34.88;27.23;;;17.80;99.90;;;;;;5019467;28;25075;-59
2021/09/26 07:27:39;;;;;;;34.00;27.73;;;17.70;99.90;;;;;;5013290;28;25075;-60
2021/09/26 07:30:06;;;;;;;32.10;26.65;;;17.80;99.90;;;;;;5013972;28;25063;-60
2021/09/26 07:32:31;;;;;;;34.35;28.10;;;17.80;99.90;;;;;;5009233;28;25098;-66
2021/09/26 07:34:57;;;;;;;32.55;26.58;;;17.80;99.90;;;;;;5011649;28;25104;-61
2021/09/26 07:37:22;;;;;;;33.05;28.13;;;17.70;99.90;;;;;;5009952;28;25055;-62
2021/09/26 07:39:48;;;;;;;36.53;29.27;;;17.70;99.90;;;;;;5011554;28;25078;-61
2021/09/26 07:42:14;;;;;;;33.78;29.60;;;17.70;99.90;;;;;;5015183;28;25096;-61
2021/09/26 07:44:39;;;;;;;32.03;26.50;;;17.70;99.90;;;;;;5007555;28;25062;-60
2021/09/26 07:47:05;;;;;;;31.27;27.38;;;17.80;99.90;;;;;;5013837;28;25180;-61
2021/09/26 07:49:30;;;;;;;30.73;26.77;;;17.90;99.90;;;;;;5011126;28;25059;-59
2021/09/26 07:51:56;;;;;;;33.85;27.77;;;18.00;99.90;;;;;;5007088;28;25079;-60
2021/09/26 07:54:22;;;;;;;35.70;27.90;;;18.10;99.90;;;;;;5008005;28;25108;-59
2021/09/26 07:56:47;;;;;;;30.70;26.58;;;18.20;99.90;;;;;;5010236;28;25154;-60
2021/09/26 07:59:13;;;;;;;30.45;26.42;;;18.30;99.90;;;;;;5008674;28;25050;-61
2021/09/26 08:01:39;;;;;;;33.63;26.27;;;18.40;99.90;;;;;;4990301;28;25061;-60
2021/09/26 08:04:04;;;;;;;32.10;26.15;;;18.40;99.90;;;;;;5016492;28;25062;-60
2021/09/26 08:06:30;;;;;;;30.00;26.67;;;18.50;99.90;;;;;;5013135;28;25045;-59
2021/09/26 08:08:56;;;;;;;30.70;24.83;;;18.60;99.90;;;;;;5006623;28;25070;-60
2021/09/26 08:11:22;;;;;;;29.75;23.80;;;18.60;99.90;;;;;;5015353;28;25089;-61
2021/09/26 08:13:48;;;;;;;29.77;24.85;;;18.50;99.90;;;;;;5016965;28;25100;-59
2021/09/26 08:16:13;;;;;;;30.60;24.83;;;18.60;99.90;;;;;;5018471;28;25060;-60
2021/09/26 08:18:39;;;;;;;29.25;24.80;;;18.70;99.90;;;;;;5015876;28;25105;-60
2021/09/26 08:21:05;;;;;;;28.63;23.45;;;19.00;99.90;;;;;;5019854;28;25061;-61
2021/09/26 08:23:30;;;;;;;28.73;22.95;;;19.30;99.90;;;;;;5019003;28;25098;-60
2021/09/26 08:25:57;;;;;;;27.65;23.58;;;19.50;99.90;;;;;;5016023;28;25057;-60
2021/09/26 08:28:24;;;;;;;30.05;23.77;;;19.80;99.90;;;;;;5014458;28;25067;-60
2021/09/26 08:30:50;;;;;;;28.48;24.15;;;20.10;99.90;;;;;;5017508;28;25099;-61
2021/09/26 08:33:16;;;;;;;28.13;23.50;;;20.20;99.90;;;;;;5002402;28;25113;-60
2021/09/26 08:35:41;;;;;;;26.00;21.90;;;20.20;99.90;;;;;;5010153;28;25109;-59
2021/09/26 08:38:07;;;;;;;28.70;22.40;;;20.40;99.90;;;;;;5012041;28;25058;-61
2021/09/26 08:40:33;;;;;;;28.30;21.98;;;20.70;99.90;;;;;;5009572;28;25070;-61
2021/09/26 08:42:59;;;;;;;26.23;22.08;;;20.90;99.90;;;;;;5013711;28;25067;-59
2021/09/26 08:45:25;;;;;;;27.90;21.35;;;21.00;99.90;;;;;;5002242;28;25072;-59
2021/09/26 08:47:51;;;;;;;25.08;21.13;;;21.00;99.90;;;;;;5014988;28;25146;-60
2021/09/26 08:50:25;;;;;;;24.60;20.67;;;20.70;99.90;;;;;;5007276;28;25066;-62
2021/09/26 08:52:52;;;;;;;29.40;21.70;;;20.80;99.90;;;;;;5001561;28;25086;-60
2021/09/26 08:55:18;;;;;;;26.73;21.40;;;20.80;99.90;;;;;;5013721;28;25088;-61
2021/09/26 08:57:43;;;;;;;23.73;20.10;;;20.80;99.90;;;;;;5010508;28;25154;-60
2021/09/26 09:00:15;;;;;;;22.98;19.95;;;20.80;99.90;;;;;;5018454;28;25067;-61
2021/09/26 09:02:41;;;;;;;26.67;20.95;;;21.00;99.90;;;;;;5006088;28;25081;-60
2021/09/26 09:05:25;;;;;;;25.58;21.33;;;21.10;99.90;;;;;;5011364;28;25070;-62
2021/09/26 09:08:15;;;;;;;25.35;20.35;;;21.20;99.90;;;;;;5020776;28;25089;-61
2021/09/26 09:10:41;;;;;;;23.75;19.52;;;21.40;99.90;;;;;;5018266;28;25100;-61
2021/09/26 09:13:08;;;;;;;23.55;20.92;;;21.20;99.90;;;;;;5005343;28;25108;-61
2021/09/26 09:15:34;;;;;;;23.73;20.20;;;21.20;99.90;;;;;;5005667;28;25164;-60
2021/09/26 09:18:05;;;;;;;24.73;22.13;;;21.00;99.90;;;;;;5010192;28;25086;-62
2021/09/26 09:20:34;;;;;;;26.88;23.08;;;21.00;99.90;;;;;;5015768;28;25146;-63
2021/09/26 09:23:13;;;;;;;27.98;21.92;;;21.00;99.90;;;;;;5012838;28;25099;-60
2021/09/26 09:25:42;;;;;;;28.52;22.35;;;20.90;99.90;;;;;;5009716;28;25059;-62
2021/09/26 09:28:22;;;;;;;27.38;22.25;;;20.90;99.90;;;;;;5008967;28;25060;-61
2021/09/26 09:30:57;;;;;;;26.55;21.05;;;20.90;99.90;;;;;;5007208;28;25066;-61
2021/09/26 09:33:33;;;;;;;24.80;22.00;;;21.00;99.90;;;;;;5011505;28;25048;-61
2021/09/26 09:35:59;;;;;;;26.02;20.75;;;20.90;99.90;;;;;;5015693;28;25098;-60
2021/09/26 09:38:36;;;;;;;29.05;22.63;;;20.90;99.90;;;;;;5008561;28;25164;-60
2021/09/26 09:41:02;;;;;;;29.67;21.63;;;21.00;99.90;;;;;;5006289;28;25114;-61
2021/09/26 09:43:27;;;;;;;25.83;21.92;;;21.00;99.90;;;;;;5007370;28;25078;-62
2021/09/26 09:46:02;;;;;;;26.95;20.85;;;21.00;99.90;;;;;;5014600;28;25134;-62
2021/09/26 09:48:32;;;;;;;27.08;21.13;;;21.10;99.90;;;;;;4995500;28;25168;-62
2021/09/26 09:51:03;;;;;;;26.48;21.50;;;21.20;99.90;;;;;;5013284;28;25126;-63
2021/09/26 09:53:46;;;;;;;29.87;21.97;;;21.30;99.90;;;;;;5009936;28;25096;-61
2021/09/26 09:56:23;;;;;;;27.33;20.80;;;21.50;99.90;;;;;;5012060;28;25111;-59
2021/09/26 09:58:59;;;;;;;26.98;21.08;;;21.40;99.90;;;;;;5012885;28;25066;-61
2021/09/26 10:01:30;;;;;;;23.60;20.67;;;21.20;99.90;;;;;;5013016;28;25061;-61
2021/09/26 10:03:56;;;;;;;23.75;20.50;;;21.30;99.90;;;;;;5016518;28;25072;-60
2021/09/26 10:06:35;;;;;;;25.55;21.23;;;21.50;99.90;;;;;;5009076;28;25132;-61
2021/09/26 10:09:25;;;;;;;26.88;20.80;;;21.60;99.90;;;;;;5011969;28;25077;-61
2021/09/26 10:12:02;;;;;;;27.63;20.35;;;21.60;99.90;;;;;;5008257;28;25106;-63
2021/09/26 10:14:30;;;;;;;25.27;20.38;;;21.50;99.90;;;;;;5013279;28;25050;-61
2021/09/26 10:16:58;;;;;;;25.98;21.88;;;21.40;99.90;;;;;;5014938;28;25077;-61
2021/09/26 10:19:25;;;;;;;23.98;20.58;;;21.50;99.90;;;;;;5009140;28;25105;-62
2021/09/26 10:21:53;;;;;;;27.42;20.88;;;21.50;99.90;;;;;;5017958;28;25527;-60
2021/09/26 10:24:23;;;;;;;23.50;19.48;;;21.50;99.90;;;;;;5015064;28;25146;-62
2021/09/26 10:26:50;;;;;;;24.75;20.58;;;21.70;99.90;;;;;;5011531;28;25168;-60
2021/09/26 10:29:19;;;;;;;28.42;22.23;;;21.80;99.90;;;;;;5011448;28;25169;-61
2021/09/26 10:31:47;;;;;;;27.33;22.40;;;21.80;99.90;;;;;;5052726;22;25070;-68
2021/09/26 10:34:14;;;;;;;23.52;21.02;;;21.50;99.90;;;;;;5049851;28;25041;-64
2021/09/26 10:36:41;;;;;;;27.10;21.70;;;21.50;99.90;;;;;;5069858;28;25115;-65
2021/09/26 10:39:08;;;;;;;29.08;21.75;;;21.50;99.90;;;;;;5047451;28;25070;-66
2021/09/26 10:41:35;;;;;;;25.10;20.88;;;21.60;99.90;;;;;;5067986;28;25085;-66
2021/09/26 10:44:30;;;;;;;26.58;20.65;;;21.70;99.90;;;;;;5066511;28;25060;-67
2021/09/26 10:47:16;;;;;;;20.92;18.73;;;21.90;99.90;;;;;;5051507;28;25060;-65
2021/09/26 10:49:54;;;;;;;21.77;18.88;;;22.10;99.90;;;;;;5066357;28;25057;-66
2021/09/26 10:52:30;;;;;;;25.65;19.25;;;22.20;99.90;;;;;;5058568;28;25073;-64
2021/09/26 10:58:05;;;;;;;25.35;19.35;;;22.00;99.90;;;;;;5058681;28;25142;-65
2021/09/26 11:00:33;;;;;;;24.75;18.98;;;22.10;99.90;;;;;;5056150;28;25109;-67
2021/09/26 11:03:30;;;;;;;23.95;18.50;;;22.30;99.90;;;;;;5046514;28;25128;-66
2021/09/26 11:05:56;;;;;;;23.05;17.65;;;22.40;99.90;;;;;;5024257;28;25069;-67
2021/09/26 11:08:24;;;;;;;23.45;19.17;;;22.50;99.90;;;;;;5066272;28;25054;-72
2021/09/26 11:10:58;;;;;;;25.35;18.67;;;22.50;99.90;;;;;;5068871;28;25103;-67
2021/09/26 11:13:36;;;;;;;21.15;18.73;;;22.60;99.90;;;;;;5054748;28;25057;-65
2021/09/26 11:16:16;;;;;;;18.90;16.90;;;22.80;99.90;;;;;;5055258;28;25107;-67
2021/09/26 11:18:45;;;;;;;20.20;17.08;;;23.00;99.90;;;;;;5064103;28;24823;-68
2021/09/26 11:21:39;;;;;;;23.52;18.92;;;23.30;99.90;;;;;;5057798;28;25133;-66
2021/09/26 11:24:13;;;;;;;21.48;17.00;;;23.40;99.90;;;;;;5056981;28;25088;-67
2021/09/26 11:27:21;;;;;;;22.08;17.65;;;23.50;99.90;;;;;;5050953;28;25061;-67
2021/09/26 11:29:48;;;;;;;19.83;16.85;;;23.70;99.90;;;;;;5014257;28;25084;-66
2021/09/26 11:32:23;;;;;;;15.40;13.85;;;24.10;99.90;;;;;;5063967;28;25104;-65
2021/09/26 11:34:57;;;;;;;14.25;12.75;;;24.10;99.90;;;;;;5055398;28;25137;-63
2021/09/26 11:37:35;;;;;;;15.48;13.30;;;24.30;99.90;;;;;;5060460;28;25102;-67
2021/09/26 11:40:02;;;;;;;17.50;14.07;;;24.60;99.90;;;;;;5072548;28;25144;-66
2021/09/26 11:42:36;;;;;;;14.52;13.00;;;24.80;99.90;;;;;;5059574;28;25126;-67
2021/09/26 11:45:05;;;;;;;13.88;12.27;;;24.60;99.90;;;;;;5043705;28;25069;-68
2021/09/26 11:47:31;;;;;;;15.73;13.65;;;24.80;99.90;;;;;;5050725;28;24834;-67
2021/09/26 11:50:08;;;;;;;20.27;14.95;;;24.80;99.90;;;;;;5056595;28;25131;-68
2021/09/26 11:52:40;;;;;;;16.73;14.68;;;24.70;99.90;;;;;;5063780;28;25069;-67
2021/09/26 11:55:07;;;;;;;20.55;14.02;;;24.90;99.90;;;;;;5079813;28;25072;-69
2021/09/26 11:57:33;;;;;;;19.00;15.90;;;25.20;99.90;;;;;;5068381;28;25074;-69
2021/09/26 11:59:59;;;;;;;18.27;16.35;;;25.20;99.90;;;;;;5068484;28;25057;-68
2021/09/26 12:02:24;;;;;;;19.20;13.75;;;24.80;99.90;;;;;;5047635;28;25145;-68
2021/09/26 12:04:50;;;;;;;18.42;16.05;;;25.10;99.90;;;;;;5065834;28;25114;-66
2021/09/26 12:07:16;;;;;;;18.38;16.00;;;25.50;99.90;;;;;;5064372;28;25073;-65
2021/09/26 12:09:45;;;;;;;19.05;14.90;;;25.30;99.90;;;;;;5060502;28;25130;-67
2021/09/26 12:12:15;;;;;;;19.15;13.82;;;25.20;99.90;;;;;;5057328;28;25096;-67
2021/09/26 12:14:43;;;;;;;19.45;16.85;;;25.10;99.90;;;;;;5066881;28;25063;-68
2021/09/26 12:17:11;;;;;;;20.58;17.13;;;24.70;99.90;;;;;;5060340;28;25121;-67
2021/09/26 12:19:38;;;;;;;19.00;17.02;;;24.10;99.90;;;;;;5051296;28;25099;-67
2021/09/26 12:22:11;;;;;;;20.60;17.08;;;23.70;99.90;;;;;;5057398;28;25065;-66
2021/09/26 12:24:42;;;;;;;21.73;18.05;;;23.60;99.90;;;;;;5066530;28;25063;-65
2021/09/26 12:27:36;;;;;;;21.67;17.65;;;23.40;99.90;;;;;;5055357;28;25077;-66
2021/09/26 12:30:07;;;;;;;21.65;18.90;;;23.20;99.90;;;;;;5038727;28;25078;-68
2021/09/26 12:32:49;;;;;;;23.67;17.55;;;23.20;99.90;;;;;;5053912;28;25100;-67
2021/09/26 12:36:08;;;;;;;21.50;17.67;;;23.20;99.90;;;;;;5043249;28;25071;-69
2021/09/26 12:38:42;;;;;;;22.85;16.80;;;23.30;99.90;;;;;;4974213;28;25059;-67
2021/09/26 12:41:29;;;;;;;16.48;14.60;;;23.50;99.90;;;;;;4966625;28;25072;-66